Date,TemperatureHighF,TemperatureAvgF,TemperatureLowF,DewpointHighF,DewpointAvgF,DewpointLowF,HumidityHigh,HumidityAvg,HumidityLow,PressureMaxIn,PressureMinIn,WindSpeedMaxMPH,WindSpeedAvgMPH,GustSpeedMaxMPH,PrecipitationSumIn
2013-6-1,102.2,82.1,67.3,72.4,67.5,62.5,90,64,32,29.90,29.76,0,0,0,0.00
2013-6-2,90.7,80.9,69.7,72.5,68.7,64.9,87,68,50,29.78,29.65,0,0,0,0.00
2013-6-3,85.3,73.8,66.1,68.1,65.2,53.7,94,76,52,29.76,29.66,0,0,0,0.00
2013-6-4,86.8,66.3,54.9,53.7,46.0,41.3,69,50,24,29.99,29.75,0,0,0,0.00
2013-6-5,87.8,65.0,47.3,57.4,47.7,38.3,78,55,33,30.07,29.96,0,0,0,0.00
2013-6-6,76.5,63.1,51.7,60.8,55.5,48.2,93,78,47,30.00,29.84,0,0,0,0.00
2013-6-7,63.9,61.4,60.1,62.3,59.6,57.6,96,94,90,29.85,29.46,0,0,0,0.00
2013-6-8,87.5,69.8,57.2,68.7,62.0,55.5,96,78,52,29.93,29.46,0,0,0,0.00
2013-6-9,95.2,73.0,57.2,68.2,60.3,54.6,93,68,36,30.04,29.93,0,0,0,0.00
2013-6-10,70.4,66.4,63.7,68.6,63.6,59.2,94,91,80,30.01,29.64,0,0,0,0.00
2013-6-11,88.6,75.1,66.6,70.4,66.0,60.1,94,75,50,29.65,29.51,0,0,0,0.00
2013-6-12,86.8,71.6,63.0,60.9,57.1,53.5,84,62,35,29.71,29.60,0,0,0,0.00
2013-6-13,70.6,63.4,56.7,64.7,59.3,54.4,95,87,74,29.71,29.25,0,0,0,0.00
2013-6-14,77.6,61.0,54.2,63.3,54.9,49.8,95,81,51,29.77,29.39,0,0,0,0.00
2013-6-15,90.0,69.0,54.0,66.9,56.8,52.1,95,69,34,29.89,29.77,0,0,0,0.00
2013-6-16,86.8,71.5,56.3,68.0,60.2,52.7,91,70,43,29.86,29.65,0,0,0,0.00
2013-6-17,92.7,76.0,64.1,70.7,65.2,57.9,92,71,44,29.79,29.70,0,0,0,0.00
2013-6-18,85.3,71.0,63.0,72.8,65.7,60.8,93,84,65,29.77,29.67,0,0,0,0.00
2013-6-19,92.3,68.8,57.6,61.0,54.8,47.6,94,65,29,30.03,29.74,0,0,0,0.00
2013-6-20,92.5,70.7,53.1,64.5,56.8,49.5,91,64,36,30.13,30.03,0,0,0,0.00
2013-6-21,94.9,72.8,54.7,63.5,56.6,49.6,85,59,33,30.17,30.09,0,0,0,0.00
2013-6-22,95.8,74.4,55.1,68.6,60.9,49.8,85,64,39,30.13,29.98,0,0,0,0.00
2013-6-23,92.5,77.7,62.6,72.7,67.2,58.6,89,71,51,30.06,29.91,0,0,0,0.00
2013-6-24,94.7,78.8,67.7,75.0,69.2,59.2,94,75,44,29.95,29.83,0,0,0,0.00
2013-6-25,96.3,79.9,65.9,74.3,68.3,63.4,94,70,42,29.88,29.69,0,0,0,0.00
2013-6-26,96.7,81.0,70.2,72.7,67.8,62.4,81,65,46,29.74,29.64,0,0,0,0.00
2013-6-27,96.5,79.5,68.8,75.9,70.5,65.7,93,76,50,29.69,29.41,0,0,0,0.00
2013-6-28,88.6,78.0,69.8,73.4,69.8,64.9,94,77,55,29.44,29.34,0,0,0,0.00
2013-6-29,99.2,77.8,65.2,70.7,66.0,61.9,93,70,36,29.56,29.35,0,0,0,0.00
2013-6-30,94.1,77.3,66.8,77.1,70.1,62.2,91,79,54,29.76,29.56,0,0,0,0.00